createdAt,value
2019-02-25T00:00:19.791Z,1033.06
2019-02-25T00:01:19.734Z,1033.03
2019-02-25T00:02:19.708Z,1033.03
2019-02-25T00:03:19.698Z,1032.99
2019-02-25T00:04:19.693Z,1033.02
2019-02-25T00:05:19.680Z,1033.01
2019-02-25T00:06:19.677Z,1032.99
2019-02-25T00:07:19.690Z,1032.99
2019-02-25T00:08:19.646Z,1033.00
2019-02-25T00:09:19.634Z,1033.02
2019-02-25T00:10:19.622Z,1033.05
2019-02-25T00:11:19.610Z,1033.08
2019-02-25T00:12:19.607Z,1033.11
2019-02-25T00:13:19.592Z,1033.15
2019-02-25T00:14:19.580Z,1033.17
2019-02-25T00:15:19.584Z,1033.20
2019-02-25T00:16:19.557Z,1033.17
2019-02-25T00:17:19.546Z,1033.20
2019-02-25T00:18:19.549Z,1033.18
2019-02-25T00:19:19.526Z,1033.18
2019-02-25T00:20:19.521Z,1033.15
2019-02-25T00:21:19.520Z,1033.12
2019-02-25T00:22:19.494Z,1033.11
2019-02-25T00:23:19.486Z,1033.07
2019-02-25T00:24:19.487Z,1033.08
2019-02-25T00:25:19.463Z,1032.99
2019-02-25T00:26:19.458Z,1032.95
2019-02-25T00:27:19.447Z,1032.92
2019-02-25T00:28:19.432Z,1032.92
2019-02-25T00:29:19.427Z,1032.90
2019-02-25T00:30:19.423Z,1032.89
2019-02-25T00:31:19.402Z,1032.87
2019-02-25T00:32:20.424Z,1032.89
2019-02-25T00:33:19.381Z,1032.89
2019-02-25T00:34:19.371Z,1032.88
2019-02-25T00:35:19.371Z,1032.89
2019-02-25T00:36:19.369Z,1032.91
2019-02-25T00:37:19.336Z,1032.91
2019-02-25T00:38:19.333Z,1032.89
2019-02-25T00:39:19.322Z,1032.92
2019-02-25T00:40:19.305Z,1032.93
2019-02-25T00:41:19.294Z,1032.93
2019-02-25T00:42:19.286Z,1032.91
2019-02-25T00:43:19.282Z,1032.95
2019-02-25T00:44:19.280Z,1032.93
2019-02-25T00:45:19.263Z,1032.98
2019-02-25T00:46:19.246Z,1032.97
2019-02-25T00:47:19.232Z,1032.94
2019-02-25T00:48:19.290Z,1032.94
2019-02-25T00:49:19.217Z,1032.94
2019-02-25T00:50:19.207Z,1032.94
2019-02-25T00:51:19.191Z,1032.94
2019-02-25T00:52:19.186Z,1032.91
2019-02-25T00:53:19.174Z,1032.93
2019-02-25T00:54:19.163Z,1032.93
2019-02-25T00:55:19.178Z,1032.94
2019-02-25T00:56:19.143Z,1032.97
2019-02-25T00:57:19.129Z,1032.97
2019-02-25T00:58:19.115Z,1032.99
2019-02-25T00:59:19.117Z,1033.01
2019-02-25T01:00:19.101Z,1033.02
2019-02-25T01:01:19.092Z,1033.01
2019-02-25T01:02:19.088Z,1032.97
2019-02-25T01:03:19.062Z,1032.95
2019-02-25T01:04:19.060Z,1032.94
2019-02-25T01:05:19.043Z,1032.91
2019-02-25T01:06:19.030Z,1032.88
2019-02-25T01:07:19.030Z,1032.83
2019-02-25T01:08:19.016Z,1032.87
2019-02-25T01:09:18.998Z,1032.90
2019-02-25T01:10:18.988Z,1032.88
2019-02-25T01:11:18.978Z,1032.89
2019-02-25T01:12:18.966Z,1032.89
2019-02-25T01:13:18.967Z,1032.88
2019-02-25T01:14:18.971Z,1032.90
2019-02-25T01:15:18.940Z,1032.86
2019-02-25T01:16:18.928Z,1032.87
2019-02-25T01:17:18.915Z,1032.88
2019-02-25T01:18:18.909Z,1032.93
2019-02-25T01:19:18.899Z,1032.89
2019-02-25T01:20:18.882Z,1032.89
2019-02-25T01:21:18.874Z,1032.88
2019-02-25T01:22:18.861Z,1032.87
2019-02-25T01:23:18.849Z,1032.86
2019-02-25T01:24:18.849Z,1032.87
2019-02-25T01:25:18.842Z,1032.86
2019-02-25T01:26:18.819Z,1032.89
2019-02-25T01:27:18.810Z,1032.90
2019-02-25T01:28:18.791Z,1032.91
2019-02-25T01:29:18.789Z,1032.94
2019-02-25T01:30:18.775Z,1032.88
2019-02-25T01:31:18.777Z,1032.95
2019-02-25T01:32:18.755Z,1032.96
2019-02-25T01:33:18.763Z,1032.92
2019-02-25T01:34:18.734Z,1032.91
2019-02-25T01:35:18.721Z,1032.92
2019-02-25T01:36:18.723Z,1032.90
2019-02-25T01:37:18.704Z,1032.89
2019-02-25T01:38:18.695Z,1032.87
2019-02-25T01:39:18.683Z,1032.86
2019-02-25T01:40:18.672Z,1032.83
2019-02-25T01:41:18.666Z,1032.84
2019-02-25T01:42:18.650Z,1032.83
2019-02-25T01:43:18.649Z,1032.80
2019-02-25T01:44:18.625Z,1032.78
2019-02-25T01:45:18.614Z,1032.78
2019-02-25T01:46:18.611Z,1032.76
2019-02-25T01:47:18.594Z,1032.76
2019-02-25T01:48:18.590Z,1032.78
2019-02-25T01:49:18.584Z,1032.73
2019-02-25T01:50:18.566Z,1032.75
2019-02-25T01:51:18.554Z,1032.73
2019-02-25T01:52:18.542Z,1032.75
2019-02-25T01:53:18.529Z,1032.74
2019-02-25T01:54:18.523Z,1032.81
2019-02-25T01:55:18.522Z,1032.80
2019-02-25T01:56:18.504Z,1032.83
2019-02-25T01:57:18.483Z,1032.78
2019-02-25T01:58:18.473Z,1032.76
2019-02-25T01:59:18.461Z,1032.73
2019-02-25T02:00:18.461Z,1032.71
2019-02-25T02:01:18.457Z,1032.66
2019-02-25T02:02:18.432Z,1032.66
2019-02-25T02:03:18.417Z,1032.67
2019-02-25T02:04:18.412Z,1032.71
2019-02-25T02:05:18.397Z,1032.69
2019-02-25T02:06:18.389Z,1032.69
2019-02-25T02:07:18.379Z,1032.70
2019-02-25T02:08:18.367Z,1032.74
2019-02-25T02:09:18.356Z,1032.66
2019-02-25T02:10:18.346Z,1032.65
2019-02-25T02:11:18.332Z,1032.61
2019-02-25T02:12:18.328Z,1032.59
2019-02-25T02:13:18.313Z,1032.55
2019-02-25T02:14:18.303Z,1032.57
2019-02-25T02:15:18.294Z,1032.55
2019-02-25T02:16:18.286Z,1032.50
2019-02-25T02:17:18.275Z,1032.48
2019-02-25T02:18:18.268Z,1032.51
2019-02-25T02:19:18.272Z,1032.52
2019-02-25T02:20:18.239Z,1032.52
2019-02-25T02:21:18.228Z,1032.52
2019-02-25T02:22:18.228Z,1032.55
2019-02-25T02:23:18.233Z,1032.49
2019-02-25T02:24:18.208Z,1032.51
2019-02-25T02:25:18.186Z,1032.46
2019-02-25T02:26:18.175Z,1032.41
2019-02-25T02:27:18.163Z,1032.45
2019-02-25T02:28:18.154Z,1032.43
2019-02-25T02:29:18.143Z,1032.39
2019-02-25T02:30:18.155Z,1032.38
2019-02-25T02:31:18.170Z,1032.41
2019-02-25T02:32:18.123Z,1032.40
2019-02-25T02:33:18.162Z,1032.40
2019-02-25T02:34:18.120Z,1032.44
2019-02-25T02:35:18.085Z,1032.39
2019-02-25T02:36:18.075Z,1032.43
2019-02-25T02:37:18.074Z,1032.40
2019-02-25T02:38:18.048Z,1032.40
2019-02-25T02:39:18.045Z,1032.40
2019-02-25T02:40:18.029Z,1032.37
2019-02-25T02:41:18.024Z,1032.40
2019-02-25T02:42:18.024Z,1032.41
2019-02-25T02:43:18.026Z,1032.39
2019-02-25T02:44:17.997Z,1032.36
2019-02-25T02:45:18.030Z,1032.41
2019-02-25T02:46:17.977Z,1032.43
2019-02-25T02:47:18.014Z,1032.47
2019-02-25T02:48:17.952Z,1032.43
2019-02-25T02:49:17.949Z,1032.40
2019-02-25T02:50:17.932Z,1032.40
2019-02-25T02:51:17.929Z,1032.42
2019-02-25T02:52:17.911Z,1032.37
2019-02-25T02:53:17.947Z,1032.30
2019-02-25T02:54:17.911Z,1032.30
2019-02-25T02:55:17.922Z,1032.31
2019-02-25T02:56:17.864Z,1032.26
2019-02-25T02:57:17.858Z,1032.28
2019-02-25T02:58:17.839Z,1032.28
2019-02-25T02:59:17.840Z,1032.26
2019-02-25T03:00:17.824Z,1032.22
2019-02-25T03:01:17.806Z,1032.24
2019-02-25T03:02:17.803Z,1032.24
2019-02-25T03:03:17.811Z,1032.24
2019-02-25T03:04:17.777Z,1032.25
2019-02-25T03:05:17.780Z,1032.26
2019-02-25T03:06:17.768Z,1032.28
2019-02-25T03:07:17.747Z,1032.29
2019-02-25T03:08:17.740Z,1032.30
2019-02-25T03:09:17.725Z,1032.35
2019-02-25T03:10:17.721Z,1032.36
2019-02-25T03:11:17.705Z,1032.36
2019-02-25T03:12:17.696Z,1032.40
2019-02-25T03:13:17.679Z,1032.45
2019-02-25T03:14:17.669Z,1032.44
2019-02-25T03:15:17.665Z,1032.45
2019-02-25T03:16:17.659Z,1032.44
2019-02-25T03:17:17.640Z,1032.46
2019-02-25T03:18:17.638Z,1032.42
2019-02-25T03:19:17.618Z,1032.46
2019-02-25T03:20:17.611Z,1032.49
2019-02-25T03:21:17.595Z,1032.46
2019-02-25T03:22:17.589Z,1032.50
2019-02-25T03:23:17.577Z,1032.47
2019-02-25T03:24:17.565Z,1032.49
2019-02-25T03:25:17.573Z,1032.49
2019-02-25T03:26:17.544Z,1032.49
2019-02-25T03:27:17.535Z,1032.46
2019-02-25T03:28:17.524Z,1032.39
2019-02-25T03:29:17.517Z,1032.40
2019-02-25T03:30:17.572Z,1032.38
2019-02-25T03:31:17.489Z,1032.37
2019-02-25T03:32:17.482Z,1032.39
2019-02-25T03:33:17.491Z,1032.40
2019-02-25T03:34:17.485Z,1032.43
2019-02-25T03:35:17.450Z,1032.42
2019-02-25T03:36:17.464Z,1032.51
2019-02-25T03:37:17.482Z,1032.52
2019-02-25T03:38:17.420Z,1032.55
2019-02-25T03:39:17.425Z,1032.54
2019-02-25T03:40:17.401Z,1032.53
2019-02-25T03:41:17.388Z,1032.55
2019-02-25T03:42:17.376Z,1032.59
2019-02-25T03:43:17.372Z,1032.61
2019-02-25T03:44:17.356Z,1032.61
2019-02-25T03:45:17.352Z,1032.64
2019-02-25T03:46:17.331Z,1032.56
2019-02-25T03:47:17.322Z,1032.52
2019-02-25T03:48:17.316Z,1032.43
2019-02-25T03:49:17.297Z,1032.42
2019-02-25T03:50:17.308Z,1032.40
2019-02-25T03:51:17.286Z,1032.38
2019-02-25T03:52:17.268Z,1032.36
2019-02-25T03:53:17.258Z,1032.30
2019-02-25T03:54:17.251Z,1032.37
2019-02-25T03:55:17.256Z,1032.31
2019-02-25T03:56:17.253Z,1032.35
2019-02-25T03:57:17.232Z,1032.33
2019-02-25T03:58:17.205Z,1032.34
2019-02-25T03:59:17.195Z,1032.35
2019-02-25T04:00:17.184Z,1032.34
2019-02-25T04:01:17.175Z,1032.36
2019-02-25T04:02:17.173Z,1032.41
2019-02-25T04:03:17.154Z,1032.39
2019-02-25T04:04:17.147Z,1032.36
2019-02-25T04:05:17.136Z,1032.35
2019-02-25T04:06:17.120Z,1032.26
2019-02-25T04:07:17.111Z,1032.29
2019-02-25T04:08:17.110Z,1032.25
2019-02-25T04:09:17.098Z,1032.24
2019-02-25T04:10:17.084Z,1032.30
2019-02-25T04:11:17.074Z,1032.34
2019-02-25T04:12:17.066Z,1032.36
2019-02-25T04:13:17.061Z,1032.41
2019-02-25T04:14:17.040Z,1032.38
2019-02-25T04:15:17.054Z,1032.35
2019-02-25T04:16:17.023Z,1032.36
2019-02-25T04:17:17.015Z,1032.38
2019-02-25T04:18:16.993Z,1032.34
2019-02-25T04:19:16.995Z,1032.33
2019-02-25T04:20:16.979Z,1032.30
2019-02-25T04:21:16.959Z,1032.31
2019-02-25T04:22:16.953Z,1032.24
2019-02-25T04:23:16.949Z,1032.21
2019-02-25T04:24:16.930Z,1032.19
2019-02-25T04:25:16.937Z,1032.17
2019-02-25T04:26:16.923Z,1032.18
2019-02-25T04:27:16.895Z,1032.17
2019-02-25T04:28:16.886Z,1032.17
2019-02-25T04:29:16.874Z,1032.17
2019-02-25T04:30:16.871Z,1032.15
2019-02-25T04:31:16.869Z,1032.14
2019-02-25T04:32:16.847Z,1032.15
2019-02-25T04:33:16.832Z,1032.10
2019-02-25T04:34:16.828Z,1032.11
2019-02-25T04:35:16.817Z,1032.13
2019-02-25T04:36:16.807Z,1032.13
2019-02-25T04:37:16.799Z,1032.14
2019-02-25T04:38:16.785Z,1032.14
2019-02-25T04:39:16.768Z,1032.12
2019-02-25T04:40:16.760Z,1032.15
2019-02-25T04:41:16.748Z,1032.17
2019-02-25T04:42:16.744Z,1032.21
2019-02-25T04:43:16.730Z,1032.25
2019-02-25T04:44:16.720Z,1032.29
2019-02-25T04:45:16.805Z,1032.34
2019-02-25T04:46:16.700Z,1032.39
2019-02-25T04:47:16.682Z,1032.43
2019-02-25T04:48:16.682Z,1032.50
2019-02-25T04:49:16.663Z,1032.56
2019-02-25T04:50:16.660Z,1032.60
2019-02-25T04:51:16.694Z,1032.62
2019-02-25T04:52:16.629Z,1032.65
2019-02-25T04:53:16.624Z,1032.66
2019-02-25T04:54:16.611Z,1032.65
2019-02-25T04:55:16.598Z,1032.63
2019-02-25T04:56:16.585Z,1032.63
2019-02-25T04:57:16.580Z,1032.65
2019-02-25T04:58:16.650Z,1032.66
2019-02-25T04:59:16.558Z,1032.71
2019-02-25T05:00:16.578Z,1032.71
2019-02-25T05:01:16.534Z,1032.72
2019-02-25T05:02:16.520Z,1032.70
2019-02-25T05:03:16.512Z,1032.68
2019-02-25T05:04:16.499Z,1032.60
2019-02-25T05:05:16.492Z,1032.62
2019-02-25T05:06:16.487Z,1032.56
2019-02-25T05:07:16.465Z,1032.50
2019-02-25T05:08:16.460Z,1032.47
2019-02-25T05:09:16.455Z,1032.48
2019-02-25T05:10:16.457Z,1032.51
2019-02-25T05:11:16.424Z,1032.51
2019-02-25T05:12:16.420Z,1032.56
2019-02-25T05:13:16.399Z,1032.62
2019-02-25T05:14:16.393Z,1032.62
2019-02-25T05:15:16.386Z,1032.66
2019-02-25T05:16:16.373Z,1032.69
2019-02-25T05:17:16.363Z,1032.72
2019-02-25T05:18:16.361Z,1032.73
2019-02-25T05:19:16.338Z,1032.70
2019-02-25T05:20:16.328Z,1032.73
2019-02-25T05:21:16.324Z,1032.67
2019-02-25T05:22:16.315Z,1032.63
2019-02-25T05:23:16.316Z,1032.62
2019-02-25T05:24:16.289Z,1032.65
2019-02-25T05:25:16.276Z,1032.62
2019-02-25T05:26:16.264Z,1032.63
2019-02-25T05:27:16.271Z,1032.64
2019-02-25T05:28:16.258Z,1032.61
2019-02-25T05:29:16.234Z,1032.61
2019-02-25T05:30:16.225Z,1032.61
2019-02-25T05:31:16.216Z,1032.63
2019-02-25T05:32:16.205Z,1032.61
2019-02-25T05:33:16.205Z,1032.64
2019-02-25T05:34:16.193Z,1032.62
2019-02-25T05:35:16.172Z,1032.62
2019-02-25T05:36:16.452Z,1032.61
2019-02-25T05:37:16.147Z,1032.62
2019-02-25T05:38:16.139Z,1032.65
2019-02-25T05:39:16.134Z,1032.68
2019-02-25T05:40:16.126Z,1032.64
2019-02-25T05:41:16.107Z,1032.63
2019-02-25T05:42:16.106Z,1032.70
2019-02-25T05:43:16.088Z,1032.70
2019-02-25T05:44:16.080Z,1032.71
2019-02-25T05:45:16.078Z,1032.65
2019-02-25T05:46:16.079Z,1032.65
2019-02-25T05:47:16.043Z,1032.63
2019-02-25T05:48:16.034Z,1032.64
2019-02-25T05:49:16.018Z,1032.61
2019-02-25T05:50:16.014Z,1032.59
2019-02-25T05:51:16.001Z,1032.60
2019-02-25T05:52:15.989Z,1032.64
2019-02-25T05:53:15.980Z,1032.66
2019-02-25T05:54:15.970Z,1032.67
2019-02-25T05:55:15.961Z,1032.66
2019-02-25T05:56:15.951Z,1032.65
2019-02-25T05:57:15.943Z,1032.63
2019-02-25T05:58:15.930Z,1032.63
2019-02-25T05:59:15.933Z,1032.63
2019-02-25T06:00:15.906Z,1032.65
2019-02-25T06:01:15.894Z,1032.64
2019-02-25T06:02:15.886Z,1032.65
2019-02-25T06:03:15.889Z,1032.65
2019-02-25T06:05:24.702Z,1032.64
2019-02-25T06:06:24.668Z,1032.66
2019-02-25T06:07:24.652Z,1032.63
2019-02-25T06:08:24.654Z,1032.66
2019-02-25T06:09:24.632Z,1032.67
2019-02-25T06:10:24.636Z,1032.67
2019-02-25T06:11:24.620Z,1032.68
2019-02-25T06:12:24.596Z,1032.71
2019-02-25T06:13:24.587Z,1032.68
2019-02-25T06:14:24.574Z,1032.73
2019-02-25T06:15:24.581Z,1032.71
2019-02-25T06:16:24.559Z,1032.71
2019-02-25T06:17:24.546Z,1032.71
2019-02-25T06:18:24.530Z,1032.72
2019-02-25T06:19:24.527Z,1032.69
2019-02-25T06:20:24.511Z,1032.74
2019-02-25T06:21:24.510Z,1032.77
2019-02-25T06:22:24.493Z,1032.79
2019-02-25T06:23:24.477Z,1032.82
2019-02-25T06:24:24.466Z,1032.80
2019-02-25T06:25:24.465Z,1032.79
2019-02-25T06:26:24.473Z,1032.78
2019-02-25T06:27:30.787Z,1032.81
2019-02-25T06:28:25.425Z,1032.79
2019-02-25T06:29:24.413Z,1032.78
2019-02-25T06:30:24.409Z,1032.78
2019-02-25T06:31:24.404Z,1032.79
2019-02-25T06:32:24.381Z,1032.76
2019-02-25T06:33:24.390Z,1032.76
2019-02-25T06:34:24.368Z,1032.80
2019-02-25T06:35:24.348Z,1032.81
2019-02-25T06:36:24.336Z,1032.79
2019-02-25T06:37:24.334Z,1032.81
2019-02-25T06:38:24.326Z,1032.80
2019-02-25T06:39:24.313Z,1032.83
2019-02-25T06:40:24.298Z,1032.80
2019-02-25T06:41:24.281Z,1032.85
2019-02-25T06:42:24.282Z,1032.85
2019-02-25T06:43:24.272Z,1032.87
2019-02-25T06:44:24.262Z,1032.89
2019-02-25T06:45:24.239Z,1032.90
2019-02-25T06:46:24.260Z,1032.96
2019-02-25T06:47:24.218Z,1032.96
2019-02-25T06:48:24.206Z,1032.98
2019-02-25T06:49:24.203Z,1032.98
2019-02-25T06:50:24.188Z,1032.97
2019-02-25T06:51:24.174Z,1032.99
2019-02-25T06:52:24.163Z,1032.96
2019-02-25T06:53:24.157Z,1032.97
2019-02-25T06:54:24.146Z,1032.98
2019-02-25T06:55:24.138Z,1032.99
2019-02-25T06:56:24.120Z,1032.99
2019-02-25T06:57:24.110Z,1032.98
2019-02-25T06:58:24.101Z,1033.05
2019-02-25T06:59:24.091Z,1033.02
2019-02-25T07:00:24.097Z,1033.04
2019-02-25T07:01:24.078Z,1033.05
2019-02-25T07:02:24.078Z,1033.06
2019-02-25T07:03:24.046Z,1033.04
2019-02-25T07:04:24.037Z,1033.08
2019-02-25T07:05:24.034Z,1033.08
2019-02-25T07:06:24.021Z,1033.11
2019-02-25T07:07:24.025Z,1033.13
2019-02-25T07:08:24.005Z,1033.19
2019-02-25T07:09:23.984Z,1033.13
2019-02-25T07:10:23.970Z,1033.16
2019-02-25T07:11:23.959Z,1033.21
2019-02-25T07:12:23.950Z,1033.20
2019-02-25T07:13:23.941Z,1033.19
2019-02-25T07:14:23.934Z,1033.21
2019-02-25T07:15:23.921Z,1033.22
2019-02-25T07:16:23.908Z,1033.19
2019-02-25T07:17:23.895Z,1033.21
2019-02-25T07:18:23.893Z,1033.17
2019-02-25T07:19:23.897Z,1033.18
2019-02-25T07:20:23.887Z,1033.17
2019-02-25T07:21:23.879Z,1033.18
2019-02-25T07:22:23.847Z,1033.19
2019-02-25T07:23:23.833Z,1033.20
2019-02-25T07:24:23.826Z,1033.12
2019-02-25T07:25:23.812Z,1033.14
2019-02-25T07:26:23.810Z,1033.18
2019-02-25T07:27:23.790Z,1033.20
2019-02-25T07:28:23.776Z,1033.19
2019-02-25T07:29:23.773Z,1033.23
2019-02-25T07:30:23.757Z,1033.22
2019-02-25T07:31:23.744Z,1033.26
2019-02-25T07:32:23.746Z,1033.27
2019-02-25T07:33:23.725Z,1033.31
2019-02-25T07:34:23.714Z,1033.36
2019-02-25T07:35:25.806Z,1033.37
2019-02-25T07:36:23.690Z,1033.40
2019-02-25T07:37:23.718Z,1033.41
2019-02-25T07:38:23.684Z,1033.38
2019-02-25T07:39:23.659Z,1033.36
2019-02-25T07:40:23.647Z,1033.33
2019-02-25T07:41:23.646Z,1033.36
2019-02-25T07:42:23.635Z,1033.36
2019-02-25T07:43:23.630Z,1033.28
2019-02-25T07:44:23.615Z,1033.28
2019-02-25T07:45:23.627Z,1033.28
2019-02-25T07:46:23.583Z,1033.27
2019-02-25T07:47:23.579Z,1033.25
2019-02-25T07:48:23.563Z,1033.27
2019-02-25T07:49:23.552Z,1033.27
2019-02-25T07:50:23.548Z,1033.24
2019-02-25T07:51:23.527Z,1033.26
2019-02-25T07:52:23.521Z,1033.27
2019-02-25T07:53:23.507Z,1033.27
2019-02-25T07:54:23.498Z,1033.33
2019-02-25T07:55:23.490Z,1033.28
2019-02-25T07:56:23.491Z,1033.28
2019-02-25T07:57:23.461Z,1033.31
2019-02-25T07:58:23.453Z,1033.29
2019-02-25T07:59:23.442Z,1033.27
2019-02-25T08:00:23.435Z,1033.24
2019-02-25T08:01:23.430Z,1033.24
2019-02-25T08:02:23.407Z,1033.29
2019-02-25T08:03:23.398Z,1033.27
2019-02-25T08:04:23.384Z,1033.23
2019-02-25T08:05:23.379Z,1033.24
2019-02-25T08:06:23.366Z,1033.22
2019-02-25T08:07:23.373Z,1033.24
2019-02-25T08:08:23.341Z,1033.27
2019-02-25T08:09:23.342Z,1033.21
2019-02-25T08:10:23.319Z,1033.22
2019-02-25T08:11:23.318Z,1033.26
2019-02-25T08:12:23.307Z,1033.28
2019-02-25T08:13:23.318Z,1033.28
2019-02-25T08:14:23.278Z,1033.27
2019-02-25T08:15:23.265Z,1033.23
2019-02-25T08:16:23.256Z,1033.26
2019-02-25T08:17:23.243Z,1033.24
2019-02-25T08:18:23.251Z,1033.21
2019-02-25T08:19:23.222Z,1033.20
2019-02-25T08:20:23.212Z,1033.14
2019-02-25T08:21:23.199Z,1033.15
2019-02-25T08:22:23.193Z,1033.09
2019-02-25T08:23:23.178Z,1033.07
2019-02-25T08:24:30.395Z,1033.02
2019-02-25T08:25:24.162Z,1033.04
2019-02-25T08:26:23.151Z,1033.05
2019-02-25T08:27:23.134Z,1033.08
2019-02-25T08:28:23.132Z,1033.07
2019-02-25T08:29:23.112Z,1033.07
2019-02-25T08:30:23.127Z,1033.09
2019-02-25T08:31:23.092Z,1033.05
2019-02-25T08:32:23.087Z,1033.06
2019-02-25T08:33:23.068Z,1033.02
2019-02-25T08:34:23.073Z,1033.01
2019-02-25T08:35:23.048Z,1033.02
2019-02-25T08:36:23.039Z,1033.03
2019-02-25T08:37:23.024Z,1033.03
2019-02-25T08:38:23.014Z,1033.04
2019-02-25T08:39:23.017Z,1033.00
2019-02-25T08:40:22.990Z,1032.96
2019-02-25T08:41:22.995Z,1032.96
2019-02-25T08:42:22.972Z,1032.93
2019-02-25T08:43:22.970Z,1032.93
2019-02-25T08:44:22.946Z,1032.98
2019-02-25T08:45:22.958Z,1032.99
2019-02-25T08:46:22.928Z,1033.02
2019-02-25T08:47:22.936Z,1033.08
2019-02-25T08:48:22.908Z,1033.07
2019-02-25T08:49:22.890Z,1033.07
2019-02-25T08:50:22.881Z,1033.13
2019-02-25T08:51:22.883Z,1033.10
2019-02-25T08:52:22.868Z,1033.11
2019-02-25T08:53:22.865Z,1033.13
2019-02-25T08:54:22.838Z,1033.06
2019-02-25T08:55:22.824Z,1033.04
2019-02-25T08:56:22.813Z,1033.02
2019-02-25T08:57:22.801Z,1033.05
2019-02-25T08:58:22.804Z,1033.00
2019-02-25T08:59:22.782Z,1033.02
2019-02-25T09:00:22.778Z,1033.01
2019-02-25T09:01:22.760Z,1033.02
2019-02-25T09:02:22.750Z,1033.01
2019-02-25T09:03:22.738Z,1033.03
2019-02-25T09:04:22.738Z,1032.99
2019-02-25T09:05:22.719Z,1033.03
2019-02-25T09:06:22.702Z,1033.04
2019-02-25T09:07:22.689Z,1033.07
2019-02-25T09:08:22.685Z,1033.10
2019-02-25T09:09:22.675Z,1033.10
2019-02-25T09:10:22.658Z,1033.13
2019-02-25T09:11:22.668Z,1033.12
2019-02-25T09:12:22.633Z,1033.15
2019-02-25T09:13:23.886Z,1033.09
2019-02-25T09:14:22.612Z,1033.02
2019-02-25T09:15:22.602Z,1033.09
2019-02-25T09:16:22.608Z,1033.07
2019-02-25T09:17:22.579Z,1033.06
2019-02-25T09:18:22.566Z,1032.99
2019-02-25T09:19:22.556Z,1033.01
2019-02-25T09:20:22.546Z,1033.03
2019-02-25T09:21:31.395Z,1033.00
2019-02-25T09:22:23.572Z,1032.97
2019-02-25T09:23:22.513Z,1033.02
2019-02-25T09:24:22.504Z,1032.96
2019-02-25T09:25:22.492Z,1032.94
2019-02-25T09:26:22.486Z,1032.96
2019-02-25T09:27:22.478Z,1032.95
2019-02-25T09:28:22.477Z,1032.96
2019-02-25T09:29:22.446Z,1033.01
2019-02-25T09:30:22.435Z,1032.99
2019-02-25T09:31:22.434Z,1033.04
2019-02-25T09:32:22.417Z,1033.03
2019-02-25T09:33:22.421Z,1033.06
2019-02-25T09:34:22.392Z,1033.06
2019-02-25T09:35:22.378Z,1033.08
2019-02-25T09:36:22.367Z,1033.08
2019-02-25T09:37:22.365Z,1033.08
2019-02-25T09:38:23.620Z,1033.10
2019-02-25T09:39:22.361Z,1033.00
2019-02-25T09:40:22.325Z,1033.02
2019-02-25T09:41:29.710Z,1033.00
2019-02-25T09:42:23.307Z,1033.00
2019-02-25T09:43:22.349Z,1033.06
2019-02-25T09:44:22.298Z,1033.07
2019-02-25T09:45:22.293Z,1033.04
2019-02-25T09:46:22.257Z,1033.01
2019-02-25T09:47:22.249Z,1032.95
2019-02-25T09:48:22.237Z,1032.92
2019-02-25T09:49:22.229Z,1032.95
2019-02-25T09:50:22.231Z,1032.94
2019-02-25T09:51:22.204Z,1032.96
2019-02-25T09:52:22.196Z,1032.96
2019-02-25T09:53:22.182Z,1032.99
2019-02-25T09:54:22.197Z,1033.05
2019-02-25T09:55:23.693Z,1033.02
2019-02-25T09:56:22.172Z,1033.02
2019-02-25T09:57:22.141Z,1033.05
2019-02-25T09:58:22.130Z,1033.04
2019-02-25T09:59:22.118Z,1033.02
2019-02-25T10:00:22.131Z,1032.99
2019-02-25T10:01:22.108Z,1032.95
2019-02-25T10:02:22.122Z,1032.87
2019-02-25T10:03:22.074Z,1032.85
2019-02-25T10:04:22.071Z,1032.81
2019-02-25T10:05:22.052Z,1032.77
2019-02-25T10:06:22.060Z,1032.75
2019-02-25T10:07:22.044Z,1032.76
2019-02-25T10:08:22.019Z,1032.70
2019-02-25T10:09:29.626Z,1032.67
2019-02-25T10:10:22.996Z,1032.59
2019-02-25T10:11:21.995Z,1032.65
2019-02-25T10:12:21.978Z,1032.60
2019-02-25T10:13:21.976Z,1032.58
2019-02-25T10:14:21.955Z,1032.54
2019-02-25T10:15:21.959Z,1032.54
2019-02-25T10:16:21.934Z,1032.56
2019-02-25T10:17:24.008Z,1032.55
2019-02-25T10:18:22.611Z,1032.55
2019-02-25T10:19:21.916Z,1032.53
2019-02-25T10:20:21.890Z,1032.60
2019-02-25T10:21:21.880Z,1032.59
2019-02-25T10:22:21.872Z,1032.56
2019-02-25T10:23:21.884Z,1032.60
2019-02-25T10:24:21.851Z,1032.66
2019-02-25T10:25:21.867Z,1032.66
2019-02-25T10:26:21.833Z,1032.63
2019-02-25T10:27:21.817Z,1032.66
2019-02-25T10:28:21.806Z,1032.65
2019-02-25T10:29:21.795Z,1032.67
2019-02-25T10:30:22.552Z,1032.62
2019-02-25T10:31:21.775Z,1032.60
2019-02-25T10:32:23.247Z,1032.62
2019-02-25T10:33:21.753Z,1032.59
2019-02-25T10:34:23.921Z,1032.58
2019-02-25T10:35:21.735Z,1032.58
2019-02-25T10:36:21.731Z,1032.54
2019-02-25T10:37:21.715Z,1032.50
2019-02-25T10:38:21.697Z,1032.55
2019-02-25T10:39:21.687Z,1032.50
2019-02-25T10:40:24.450Z,1032.53
2019-02-25T10:41:22.963Z,1032.52
2019-02-25T10:42:21.675Z,1032.49
2019-02-25T10:43:21.649Z,1032.49
2019-02-25T10:44:21.633Z,1032.46
2019-02-25T10:45:21.747Z,1032.47
2019-02-25T10:46:21.613Z,1032.38
2019-02-25T10:47:21.661Z,1032.35
2019-02-25T10:48:22.071Z,1032.34
2019-02-25T10:49:22.476Z,1032.30
2019-02-25T10:50:21.566Z,1032.27
2019-02-25T10:51:21.560Z,1032.30
2019-02-25T10:52:21.549Z,1032.26
2019-02-25T10:53:22.088Z,1032.31
2019-02-25T10:54:23.152Z,1032.28
2019-02-25T10:55:22.360Z,1032.27
2019-02-25T10:56:22.053Z,1032.36
2019-02-25T10:57:23.889Z,1032.30
2019-02-25T10:58:21.488Z,1032.29
2019-02-25T10:59:21.467Z,1032.30
2019-02-25T11:00:21.458Z,1032.32
2019-02-25T11:01:22.347Z,1032.33
2019-02-25T11:02:21.435Z,1032.36
2019-02-25T11:03:21.791Z,1032.34
2019-02-25T11:04:22.128Z,1032.31
2019-02-25T11:05:23.094Z,1032.23
2019-02-25T11:06:21.394Z,1032.22
2019-02-25T11:07:21.380Z,1032.20
2019-02-25T11:08:21.374Z,1032.23
2019-02-25T11:09:21.362Z,1032.20
2019-02-25T11:10:22.387Z,1032.15
2019-02-25T11:11:23.233Z,1032.20
2019-02-25T11:12:21.980Z,1032.17
2019-02-25T11:13:21.317Z,1032.15
2019-02-25T11:14:21.304Z,1032.12
2019-02-25T11:15:21.299Z,1032.06
2019-02-25T11:16:21.287Z,1032.02
2019-02-25T11:17:22.428Z,1032.03
2019-02-25T11:18:23.608Z,1032.03
2019-02-25T11:19:22.442Z,1032.07
2019-02-25T11:20:21.269Z,1032.07
2019-02-25T11:21:21.236Z,1032.03
2019-02-25T11:22:21.219Z,1031.98
2019-02-25T11:23:21.688Z,1031.98
2019-02-25T11:24:23.372Z,1031.98
2019-02-25T11:25:21.910Z,1031.94
2019-02-25T11:26:21.172Z,1031.94
2019-02-25T11:27:21.171Z,1031.92
2019-02-25T11:28:25.128Z,1031.91
2019-02-25T11:29:21.142Z,1031.91
2019-02-25T11:30:22.178Z,1031.90
2019-02-25T11:31:24.117Z,1031.89
2019-02-25T11:32:21.552Z,1031.86
2019-02-25T11:33:22.796Z,1031.90
2019-02-25T11:34:21.347Z,1031.93
2019-02-25T11:35:21.097Z,1031.90
2019-02-25T11:36:22.050Z,1031.89
2019-02-25T11:37:22.542Z,1031.88
2019-02-25T11:38:21.049Z,1031.89
2019-02-25T11:39:21.036Z,1031.91
2019-02-25T11:40:21.045Z,1031.91
2019-02-25T11:41:21.016Z,1031.88
2019-02-25T11:42:21.016Z,1031.91
2019-02-25T11:43:21.611Z,1031.85
2019-02-25T11:44:22.995Z,1031.83
2019-02-25T11:45:21.007Z,1031.81
2019-02-25T11:46:20.958Z,1031.80
2019-02-25T11:47:20.953Z,1031.79
2019-02-25T11:48:22.612Z,1031.77
2019-02-25T11:49:20.926Z,1031.81
2019-02-25T11:50:39.860Z,1031.77
2019-02-25T11:51:39.861Z,1031.73
2019-02-25T11:53:10.317Z,1031.70
2019-02-25T11:54:10.289Z,1031.69
2019-02-25T11:55:40.752Z,1031.69
2019-02-25T11:56:40.761Z,1031.64
2019-02-25T11:58:11.221Z,1031.65
2019-02-25T11:59:11.203Z,1031.69
2019-02-25T12:00:45.823Z,1031.63
2019-02-25T12:01:45.801Z,1031.64
2019-02-25T12:03:16.312Z,1031.65
2019-02-25T12:04:16.296Z,1031.60
2019-02-25T12:05:46.740Z,1031.54
2019-02-25T12:06:46.720Z,1031.51
2019-02-25T12:08:17.206Z,1031.46
2019-02-25T12:09:17.181Z,1031.38
2019-02-25T12:10:47.657Z,1031.40